Current | Forecast
Updated: 8:00 PM +05 on January 17, 2018
Observed at Perm' Airport, Russia
Temperature 16°F
Windchill 9°F
Humidity 79%
Dew Point 10°F
Wind SSE at 4 mph
Pressure 30.30 in (Steady)
Conditions Light Snow
Visibility 3.7 miles
UV 0 out of 16
Clouds Mostly Cloudy (BKN) : 1600 ft
Yesterday's Maximum 23°F
Yesterday's Minimum 18°F approx.
Yesterday's Heating Degree Days 45 approx.
Sunrise9:40 AM +05
Sunset5:06 PM +05
Moon Rise9:37 AM +05
Moon Set5:34 PM +05
Moon PhaseMoon Phase
New Moon
Raw METARMETAR USPP 171500Z 16002MPS 6000 -SN BKN016 M09/M12 Q1026 R21/690245 NOSIG RMK QFE758


Monday
. High: 75° F.
Tuesday
. High: 80° F.
Wednesday
. High: 78° F.
Thursday
. High: 55° F.
Friday
. High: 53° F.
Saturday
. High: 55° F.
Sunday
. High: 53° F.
Monday
. High: 59° F.

Units: English | Metric

Find the Weather for any City, State or Zipcode, or Country:

U.S. State List | Severe Weather | Tropical Storms | Ski Conditions
United States | Canada | Central America | South America | Asia | Europe | Australia | Africa | Islands

Weather Underground

© Copyright 2018
The Weather Company, LLC